Terminal Aerodrome Forecast
Issued by NWS Charleston, WV

Current Version | Previous Version | Text Only | Print | Product List | Glossary Off
Versions: 1 2 3 4 5 6 7 8 9 10 11 12 13 14 15 16 17 18 19 20 21 22 23 24 25 26 27 28

360
FTUS41 KRLX 271755
TAFPKB
TAF
KPKB 271755Z 2718/2818 23005KT P6SM SCT025 BKN060
      TEMPO 2721/2801 4SM -SHRA BR BKN025
     FM280100 VRB03KT P6SM VCTS BKN040CB
     FM280300 13004KT P6SM BKN060
     FM280500 13004KT 5SM SHRA OVC040
     FM280900 18004KT 3SM SHRA OVC015
     FM281600 25006KT 5SM -SHRA OVC015=

USA.gov is the U.S. government's official web portal to all federal, state and local government web resources and services.